Time;durP1;ratioP1;P1;durP2;ratioP2;P2;SDS_P1;SDS_P2;PMS_P1;PMS_P2;Temp;Humidity;BMP_temperature;BMP_pressure;BME280_temperature;BME280_humidity;BME280_pressure;Samples;Min_cycle;Max_cycle;Signal;HPM_P1;HPM_P2
2021/03/12 00:02:04;;;;;;;42.72;7.25;;;5.70;90.90;;;;;;5066958;28;20017;-71
2021/03/12 00:04:29;;;;;;;55.58;6.88;;;5.70;90.90;;;;;;5069542;28;20058;-71
2021/03/12 00:06:55;;;;;;;48.72;6.57;;;5.60;90.90;;;;;;5078209;28;20342;-71
2021/03/12 00:09:20;;;;;;;62.08;6.90;;;5.70;90.80;;;;;;5065485;28;20070;-71
2021/03/12 00:11:46;;;;;;;63.10;8.80;;;5.70;90.70;;;;;;5067313;28;20058;-71
2021/03/12 00:14:12;;;;;;;52.15;7.43;;;5.70;90.70;;;;;;5066029;28;20088;-71
2021/03/12 00:16:37;;;;;;;39.88;7.03;;;5.70;90.70;;;;;;5066756;28;20028;-71
2021/03/12 00:19:03;;;;;;;56.42;8.65;;;5.70;90.70;;;;;;5066407;28;20015;-71
2021/03/12 00:21:29;;;;;;;40.28;6.15;;;5.70;90.80;;;;;;5065401;28;20048;-71
2021/03/12 00:23:55;;;;;;;49.17;7.68;;;5.70;90.80;;;;;;5064826;28;20028;-71
2021/03/12 00:26:21;;;;;;;56.88;6.10;;;5.70;90.70;;;;;;5061575;28;20088;-71
2021/03/12 00:28:46;;;;;;;49.45;7.03;;;5.80;90.90;;;;;;5063945;28;20016;-72
2021/03/12 00:31:12;;;;;;;55.72;6.88;;;5.80;90.90;;;;;;5063486;28;20044;-71
2021/03/12 00:33:38;;;;;;;58.45;7.30;;;5.80;91.00;;;;;;5064020;28;20107;-70
2021/03/12 00:36:05;;;;;;;58.10;7.55;;;5.80;91.00;;;;;;5046758;28;20016;-70
2021/03/12 00:38:30;;;;;;;58.58;7.63;;;5.80;91.00;;;;;;5063578;28;20088;-71
2021/03/12 00:40:59;;;;;;;55.10;6.38;;;5.80;91.10;;;;;;5046737;28;20016;-71
2021/03/12 00:43:24;;;;;;;62.83;9.20;;;5.80;91.20;;;;;;5063621;28;20024;-72
2021/03/12 00:45:52;;;;;;;56.65;8.55;;;5.70;91.20;;;;;;5071183;28;20013;-70
2021/03/12 00:48:18;;;;;;;60.90;7.05;;;5.70;91.20;;;;;;5071913;28;20059;-72
2021/03/12 00:50:43;;;;;;;55.22;7.13;;;5.70;91.30;;;;;;5071531;28;20013;-71
2021/03/12 00:53:09;;;;;;;59.03;7.03;;;5.80;91.30;;;;;;5071468;28;20001;-71
2021/03/12 00:55:35;;;;;;;52.00;8.10;;;5.80;91.40;;;;;;5054221;28;20051;-71
2021/03/12 00:58:01;;;;;;;60.95;9.50;;;5.70;91.40;;;;;;5048760;28;20088;-71
2021/03/12 01:00:28;;;;;;;58.60;7.75;;;5.70;91.40;;;;;;5058752;28;20024;-71
2021/03/12 01:02:53;;;;;;;61.40;8.20;;;5.70;91.40;;;;;;5064901;28;20016;-72
2021/03/12 01:05:19;;;;;;;53.65;8.75;;;5.70;91.40;;;;;;5074632;28;20056;-72
2021/03/12 01:07:45;;;;;;;54.42;7.30;;;5.70;91.40;;;;;;5047253;28;20330;-71
2021/03/12 01:10:11;;;;;;;56.80;6.60;;;5.70;91.30;;;;;;5046477;28;20202;-71
2021/03/12 01:12:37;;;;;;;61.17;8.05;;;5.70;91.20;;;;;;5063201;28;20203;-71
2021/03/12 01:15:08;;;;;;;54.17;8.50;;;5.70;91.20;;;;;;5062597;28;20017;-71
2021/03/12 01:17:34;;;;;;;65.78;9.27;;;5.70;91.30;;;;;;5062688;28;20013;-71
2021/03/12 01:19:59;;;;;;;56.03;7.70;;;5.70;91.20;;;;;;5046245;28;20063;-71
2021/03/12 01:22:25;;;;;;;54.00;6.90;;;5.80;91.30;;;;;;5063199;28;20088;-71
2021/03/12 01:24:51;;;;;;;55.75;6.85;;;5.80;91.30;;;;;;5049078;28;20062;-71
2021/03/12 01:27:16;;;;;;;61.38;7.53;;;5.80;91.40;;;;;;5082465;28;20021;-71
2021/03/12 01:29:42;;;;;;;59.88;9.15;;;5.80;91.20;;;;;;5066205;28;20013;-71
2021/03/12 01:32:08;;;;;;;59.22;7.88;;;5.80;91.20;;;;;;5063978;28;20004;-70
2021/03/12 01:34:33;;;;;;;53.72;6.53;;;5.80;91.60;;;;;;5063173;28;20009;-71
2021/03/12 01:36:59;;;;;;;68.38;7.40;;;5.80;91.30;;;;;;5069065;28;20009;-71
2021/03/12 01:39:25;;;;;;;59.17;8.15;;;5.80;91.30;;;;;;5062965;28;20016;-71
2021/03/12 01:41:50;;;;;;;59.05;7.28;;;5.80;91.30;;;;;;5062559;28;20019;-71
2021/03/12 01:44:17;;;;;;;60.00;7.95;;;5.80;91.40;;;;;;5062284;28;20009;-71
2021/03/12 01:46:43;;;;;;;61.85;7.72;;;5.80;91.40;;;;;;5062621;28;20017;-71
2021/03/12 01:49:08;;;;;;;65.55;7.72;;;5.80;91.40;;;;;;5062195;28;20044;-71
2021/03/12 01:51:34;;;;;;;65.53;8.00;;;5.80;91.40;;;;;;5062003;28;20032;-71
2021/03/12 01:54:00;;;;;;;66.25;8.32;;;5.80;91.30;;;;;;5061970;28;20015;-71
2021/03/12 01:56:26;;;;;;;64.45;8.35;;;5.70;91.40;;;;;;5062241;28;20024;-71
2021/03/12 01:58:52;;;;;;;63.97;8.00;;;5.70;91.40;;;;;;5045517;28;20016;-71
2021/03/12 02:01:18;;;;;;;53.85;6.97;;;5.70;91.40;;;;;;5062180;28;20318;-71
2021/03/12 02:03:43;;;;;;;49.83;7.45;;;5.70;91.40;;;;;;5063394;28;20102;-71
2021/03/12 02:06:09;;;;;;;56.17;9.18;;;5.70;91.40;;;;;;5061315;28;20090;-71
2021/03/12 02:08:35;;;;;;;48.95;7.55;;;5.80;91.30;;;;;;5061368;28;20055;-71
2021/03/12 02:11:00;;;;;;;58.85;9.40;;;5.80;91.30;;;;;;5061300;28;20310;-71
2021/03/12 02:13:48;;;;;;;54.15;7.07;;;5.80;91.30;;;;;;5061650;28;20247;-71
2021/03/12 02:16:37;;;;;;;60.83;8.60;;;5.80;91.20;;;;;;5073851;28;20005;-71
2021/03/12 02:19:03;;;;;;;53.38;6.63;;;5.80;91.20;;;;;;5097241;28;20009;-71
2021/03/12 02:21:39;;;;;;;54.60;6.72;;;5.90;91.20;;;;;;5062217;28;20261;-71
2021/03/12 02:24:16;;;;;;;62.72;9.20;;;5.90;91.10;;;;;;5045189;28;20012;-71
2021/03/12 02:26:41;;;;;;;55.05;8.77;;;5.90;91.10;;;;;;5043703;28;20063;-71
2021/03/12 02:29:28;;;;;;;54.60;7.00;;;5.90;91.00;;;;;;5062530;28;20024;-71
2021/03/12 02:31:55;;;;;;;61.67;7.68;;;5.90;91.10;;;;;;5060944;28;20021;-71
2021/03/12 02:34:22;;;;;;;58.50;8.07;;;5.90;91.10;;;;;;5044706;28;20120;-72
2021/03/12 02:36:50;;;;;;;64.07;8.55;;;5.90;91.10;;;;;;5083949;28;20005;-72
2021/03/12 02:39:18;;;;;;;59.80;7.60;;;5.90;91.10;;;;;;5079405;28;20005;-71
2021/03/12 02:41:44;;;;;;;70.68;7.28;;;5.90;91.10;;;;;;5061368;28;20043;-72
2021/03/12 02:44:10;;;;;;;51.38;7.57;;;5.90;91.20;;;;;;5061022;28;20264;-71
2021/03/12 02:46:36;;;;;;;52.47;6.80;;;5.90;91.00;;;;;;5061127;28;20076;-70
2021/03/12 02:49:01;;;;;;;51.20;8.00;;;5.90;90.90;;;;;;5064294;28;20032;-71
2021/03/12 02:51:27;;;;;;;52.33;6.88;;;5.90;90.80;;;;;;5065004;28;20278;-71
2021/03/12 02:53:53;;;;;;;45.50;7.22;;;6.00;90.80;;;;;;5064930;28;20017;-71
2021/03/12 02:56:19;;;;;;;57.97;8.73;;;6.00;90.80;;;;;;5064988;28;20088;-71
2021/03/12 02:58:45;;;;;;;50.30;6.88;;;6.00;90.70;;;;;;5065359;28;20012;-70
2021/03/12 03:01:11;;;;;;;54.97;5.85;;;6.00;90.60;;;;;;5048104;28;20012;-71
2021/03/12 03:03:38;;;;;;;47.10;6.82;;;6.00;90.60;;;;;;5064616;28;20045;-71
2021/03/12 03:06:04;;;;;;;48.53;7.47;;;6.00;90.60;;;;;;5074446;28;20029;-71
2021/03/12 03:08:30;;;;;;;60.90;7.40;;;6.00;90.60;;;;;;5085171;28;20268;-71
2021/03/12 03:11:01;;;;;;;49.60;7.47;;;6.00;90.50;;;;;;5065052;28;20009;-71
2021/03/12 03:13:31;;;;;;;57.95;6.68;;;6.00;90.50;;;;;;5065085;28;20171;-71
2021/03/12 03:15:57;;;;;;;45.72;6.70;;;6.00;90.50;;;;;;5039686;28;20012;-71
2021/03/12 03:18:22;;;;;;;50.75;6.07;;;5.90;90.50;;;;;;5067341;28;20021;-71
2021/03/12 03:20:48;;;;;;;40.92;5.32;;;5.90;90.50;;;;;;5064593;28;20017;-71
2021/03/12 03:23:13;;;;;;;37.75;5.50;;;5.90;90.60;;;;;;5064436;28;20019;-71
2021/03/12 03:25:39;;;;;;;44.95;5.57;;;5.90;90.60;;;;;;5070477;28;20008;-71
2021/03/12 03:28:05;;;;;;;39.10;4.70;;;5.90;90.60;;;;;;5098164;28;20214;-71
2021/03/12 03:30:30;;;;;;;32.22;5.80;;;5.90;90.70;;;;;;5064628;28;20302;-71
2021/03/12 03:32:56;;;;;;;37.15;4.80;;;5.90;90.70;;;;;;5064241;28;20460;-71
2021/03/12 03:35:22;;;;;;;38.15;4.72;;;5.90;90.70;;;;;;5047850;28;20051;-72
2021/03/12 03:37:47;;;;;;;39.47;4.78;;;5.90;91.00;;;;;;5075327;28;20225;-72
2021/03/12 03:40:13;;;;;;;37.08;4.93;;;5.90;90.70;;;;;;5064372;28;20338;-71
2021/03/12 03:42:40;;;;;;;47.88;6.15;;;5.90;90.70;;;;;;5061146;28;20048;-71
2021/03/12 03:45:07;;;;;;;34.72;5.10;;;5.90;90.70;;;;;;5031157;28;20017;-71
2021/03/12 03:47:32;;;;;;;31.67;5.32;;;5.90;90.70;;;;;;5064156;28;20021;-71
2021/03/12 03:49:58;;;;;;;39.15;6.05;;;5.90;90.70;;;;;;5065164;28;20020;-71
2021/03/12 03:52:24;;;;;;;32.50;4.80;;;5.90;90.60;;;;;;5064067;28;20048;-71
2021/03/12 03:54:53;;;;;;;46.72;6.40;;;5.90;90.60;;;;;;5064035;28;20091;-71
2021/03/12 03:57:20;;;;;;;45.33;6.80;;;5.90;90.60;;;;;;5067811;28;20009;-71
2021/03/12 03:59:46;;;;;;;36.30;6.47;;;6.00;90.60;;;;;;5064157;28;20024;-71
2021/03/12 04:02:13;;;;;;;43.75;7.38;;;6.00;90.70;;;;;;5064112;28;20029;-72
2021/03/12 04:04:39;;;;;;;40.05;5.70;;;5.90;90.60;;;;;;5074600;28;20004;-72
2021/03/12 04:07:08;;;;;;;45.22;6.05;;;5.90;90.60;;;;;;5063470;28;20071;-71
2021/03/12 04:09:34;;;;;;;49.03;7.13;;;5.90;90.80;;;;;;5058085;28;20040;-71
2021/03/12 04:11:59;;;;;;;48.08;7.78;;;5.90;90.90;;;;;;5072176;28;20013;-71
2021/03/12 04:14:25;;;;;;;36.83;6.05;;;5.90;91.00;;;;;;5063912;28;20005;-71
2021/03/12 04:16:51;;;;;;;40.17;6.85;;;5.90;91.20;;;;;;5063732;28;20028;-72
2021/03/12 04:19:16;;;;;;;36.92;5.85;;;5.90;91.10;;;;;;5064004;28;20016;-72
2021/03/12 04:21:42;;;;;;;40.55;6.32;;;5.80;91.20;;;;;;5046857;28;20020;-72
2021/03/12 04:24:08;;;;;;;34.80;5.13;;;5.80;91.20;;;;;;5046991;28;20008;-72
2021/03/12 04:26:33;;;;;;;39.20;5.15;;;5.80;91.30;;;;;;5061271;28;20225;-72
2021/03/12 04:28:59;;;;;;;37.60;5.43;;;5.80;91.50;;;;;;5063669;28;20242;-72
2021/03/12 04:31:25;;;;;;;35.63;5.40;;;5.80;91.60;;;;;;5076687;28;20024;-72
2021/03/12 04:33:50;;;;;;;33.67;4.75;;;5.70;91.60;;;;;;5083831;28;20118;-72
2021/03/12 04:36:17;;;;;;;32.92;5.75;;;5.70;91.50;;;;;;5087491;28;20108;-72
2021/03/12 04:38:42;;;;;;;42.13;7.70;;;5.70;91.40;;;;;;5047518;28;20020;-72
2021/03/12 04:41:08;;;;;;;30.17;4.75;;;5.70;91.60;;;;;;5046586;28;20115;-72
2021/03/12 04:43:34;;;;;;;32.22;5.28;;;5.70;91.60;;;;;;5063745;28;20013;-72
2021/03/12 04:46:02;;;;;;;36.78;6.82;;;5.70;91.60;;;;;;5063551;28;20017;-72
2021/03/12 04:48:29;;;;;;;48.33;5.55;;;5.70;91.80;;;;;;5067016;28;20256;-72
2021/03/12 04:50:55;;;;;;;45.60;5.57;;;5.70;91.80;;;;;;5060640;28;20012;-72
2021/03/12 04:53:21;;;;;;;31.13;4.95;;;5.60;91.80;;;;;;5075680;28;20028;-72
2021/03/12 04:55:46;;;;;;;31.27;5.60;;;5.60;91.90;;;;;;5074377;28;20013;-72
2021/03/12 04:58:12;;;;;;;40.30;6.25;;;5.70;91.80;;;;;;5070064;28;20261;-72
2021/03/12 05:00:38;;;;;;;42.38;5.20;;;5.60;91.90;;;;;;5052926;28;20017;-72
2021/03/12 05:03:03;;;;;;;22.55;4.13;;;5.60;92.00;;;;;;5064991;28;20016;-72
2021/03/12 05:05:29;;;;;;;31.83;4.18;;;5.60;91.80;;;;;;5043358;28;20195;-72
2021/03/12 05:07:55;;;;;;;24.65;3.67;;;5.60;91.80;;;;;;5028814;28;20052;-72
2021/03/12 05:10:20;;;;;;;31.33;4.32;;;5.60;91.80;;;;;;5062302;28;20112;-72
2021/03/12 05:12:46;;;;;;;27.77;3.45;;;5.60;91.70;;;;;;5063201;28;20005;-71
2021/03/12 05:15:12;;;;;;;26.83;4.07;;;5.60;91.50;;;;;;5063668;28;20032;-72
2021/03/12 05:17:37;;;;;;;29.27;4.93;;;5.60;91.60;;;;;;5064095;28;20326;-72
2021/03/12 05:20:03;;;;;;;35.90;4.07;;;5.60;91.70;;;;;;5046292;28;20040;-72
2021/03/12 05:22:30;;;;;;;28.33;3.70;;;5.50;91.70;;;;;;5079402;28;20025;-72
2021/03/12 05:24:55;;;;;;;23.33;3.28;;;5.50;91.90;;;;;;5062645;28;20062;-71
2021/03/12 05:27:21;;;;;;;29.85;4.38;;;5.50;92.00;;;;;;5062338;28;20326;-71
2021/03/12 05:29:47;;;;;;;23.10;2.90;;;5.40;92.10;;;;;;5046335;28;20005;-71
2021/03/12 05:32:12;;;;;;;22.70;3.53;;;5.40;92.10;;;;;;5046277;28;20345;-71
2021/03/12 05:34:38;;;;;;;21.77;3.90;;;5.40;92.30;;;;;;5062747;28;20066;-71
2021/03/12 05:37:03;;;;;;;23.15;3.88;;;5.30;92.20;;;;;;5064463;28;20262;-72
2021/03/12 05:39:29;;;;;;;19.73;2.97;;;5.30;92.30;;;;;;5046624;28;20016;-71
2021/03/12 05:41:55;;;;;;;24.90;2.90;;;5.30;92.30;;;;;;5061238;28;20008;-72
2021/03/12 05:44:20;;;;;;;33.08;4.25;;;5.20;92.40;;;;;;5086569;28;20009;-72
2021/03/12 05:46:46;;;;;;;15.90;2.88;;;5.20;92.50;;;;;;5100697;28;20072;-71
2021/03/12 05:49:15;;;;;;;20.27;2.58;;;5.20;92.60;;;;;;5063202;28;20024;-71
2021/03/12 05:51:40;;;;;;;15.40;2.83;;;5.20;92.60;;;;;;5071522;28;20013;-71
2021/03/12 05:54:06;;;;;;;21.35;3.15;;;5.20;93.00;;;;;;5062608;28;20004;-71
2021/03/12 05:56:32;;;;;;;24.58;3.10;;;5.20;92.80;;;;;;5062738;28;20184;-72
2021/03/12 05:58:58;;;;;;;23.45;3.83;;;5.20;92.90;;;;;;5062443;28;20020;-71
2021/03/12 06:01:24;;;;;;;20.95;3.15;;;5.10;92.90;;;;;;5068436;28;20205;-72
2021/03/12 06:03:49;;;;;;;19.20;3.10;;;5.20;93.00;;;;;;5062491;28;20081;-72
2021/03/12 06:06:15;;;;;;;23.15;4.45;;;5.20;93.00;;;;;;5063592;28;20037;-72
2021/03/12 06:08:41;;;;;;;34.17;4.28;;;5.20;93.10;;;;;;5058140;28;20037;-73
2021/03/12 06:11:06;;;;;;;24.42;3.53;;;5.20;93.10;;;;;;5055098;28;20019;-71
2021/03/12 06:13:47;;;;;;;40.53;5.45;;;5.20;93.10;;;;;;5061571;28;20058;-72
2021/03/12 06:16:25;;;;;;;33.75;4.80;;;5.20;93.00;;;;;;5063296;28;20024;-71
2021/03/12 06:19:13;;;;;;;28.85;4.90;;;5.30;92.90;;;;;;5062847;28;20016;-71
2021/03/12 06:21:40;;;;;;;28.92;5.47;;;5.30;92.90;;;;;;5062269;28;20092;-71
2021/03/12 06:24:25;;;;;;;27.45;4.78;;;5.30;92.90;;;;;;5056785;28;20035;-71
2021/03/12 06:26:51;;;;;;;35.78;4.20;;;5.30;92.80;;;;;;5061061;28;20056;-72
2021/03/12 06:29:17;;;;;;;28.33;4.97;;;5.40;92.80;;;;;;5063283;28;20341;-72
2021/03/12 06:31:52;;;;;;;31.23;5.18;;;5.40;92.80;;;;;;5065565;28;20008;-72
2021/03/12 06:34:18;;;;;;;28.20;4.70;;;5.40;92.70;;;;;;5064135;28;20008;-72
2021/03/12 06:36:43;;;;;;;34.85;4.72;;;5.50;92.70;;;;;;5064229;28;20043;-72
2021/03/12 06:39:09;;;;;;;33.45;5.28;;;5.50;92.70;;;;;;5076311;28;20008;-72
2021/03/12 06:41:38;;;;;;;41.05;6.05;;;5.50;92.70;;;;;;5062336;28;20119;-72
2021/03/12 06:44:27;;;;;;;41.25;5.88;;;5.50;92.80;;;;;;5079366;28;20009;-72
2021/03/12 06:46:52;;;;;;;43.40;5.68;;;5.40;93.10;;;;;;5064941;28;20112;-72
2021/03/12 06:49:18;;;;;;;47.80;6.68;;;5.40;93.20;;;;;;5030938;28;20024;-72
2021/03/12 06:52:00;;;;;;;30.25;5.45;;;5.40;93.20;;;;;;5047440;28;20080;-72
2021/03/12 06:54:26;;;;;;;39.80;5.40;;;5.30;93.10;;;;;;5061603;28;20016;-72
2021/03/12 06:56:53;;;;;;;41.70;5.22;;;5.30;93.00;;;;;;5063222;28;20013;-72
2021/03/12 06:59:26;;;;;;;34.63;5.90;;;5.30;93.00;;;;;;5035771;28;20058;-72
2021/03/12 07:02:02;;;;;;;31.52;6.25;;;5.30;93.10;;;;;;5049302;28;20276;-72
2021/03/12 07:04:28;;;;;;;34.67;5.43;;;5.30;93.00;;;;;;5073192;28;20025;-72
2021/03/12 07:06:54;;;;;;;33.65;4.57;;;5.30;93.10;;;;;;5061827;28;20349;-72
2021/03/12 07:09:20;;;;;;;38.22;5.28;;;5.30;93.20;;;;;;5035424;28;20051;-72
2021/03/12 07:12:03;;;;;;;35.53;4.75;;;5.30;93.00;;;;;;5068340;28;20403;-74
2021/03/12 07:14:30;;;;;;;41.55;6.85;;;5.30;93.10;;;;;;5053053;28;20092;-73
2021/03/12 07:16:56;;;;;;;45.30;6.43;;;5.30;93.10;;;;;;5039774;28;20470;-73
2021/03/12 07:19:22;;;;;;;43.13;6.25;;;5.30;93.20;;;;;;5054136;28;20041;-71
2021/03/12 07:21:49;;;;;;;41.83;6.45;;;5.30;93.20;;;;;;5052328;28;20017;-73
2021/03/12 07:24:16;;;;;;;52.45;7.05;;;5.30;93.20;;;;;;5041273;28;20029;-72
2021/03/12 07:26:42;;;;;;;42.95;7.25;;;5.40;93.10;;;;;;5030976;28;20021;-72
2021/03/12 07:29:09;;;;;;;54.45;7.07;;;5.40;92.80;;;;;;5055766;28;20052;-76
2021/03/12 07:31:36;;;;;;;49.83;6.63;;;5.50;92.50;;;;;;5057974;28;20004;-75
2021/03/12 07:34:10;;;;;;;52.53;7.05;;;5.50;92.50;;;;;;5043598;28;20156;-75
2021/03/12 07:36:38;;;;;;;53.80;7.72;;;5.50;92.50;;;;;;5041905;28;20040;-72
2021/03/12 07:39:04;;;;;;;50.97;7.38;;;5.60;92.20;;;;;;5045718;28;20413;-73
2021/03/12 07:41:30;;;;;;;56.22;7.22;;;5.60;91.90;;;;;;5043977;28;20123;-76
2021/03/12 07:43:55;;;;;;;52.70;6.10;;;5.70;92.10;;;;;;5050719;28;20032;-77
2021/03/12 07:46:24;;;;;;;54.90;6.38;;;5.70;91.80;;;;;;5018910;28;20021;-77
2021/03/12 07:48:50;;;;;;;46.63;7.05;;;5.70;91.80;;;;;;5040797;28;20045;-78
2021/03/12 07:51:16;;;;;;;46.22;6.03;;;5.80;91.70;;;;;;5028254;28;20112;-78
2021/03/12 07:53:52;;;;;;;47.53;6.63;;;5.90;91.60;;;;;;5043164;28;20116;-78
2021/03/12 07:56:39;;;;;;;50.88;6.32;;;5.90;90.70;;;;;;5047477;28;20021;-78
2021/03/12 07:59:04;;;;;;;37.92;5.78;;;6.00;90.60;;;;;;5031631;28;20029;-77
2021/03/12 08:01:49;;;;;;;42.88;6.15;;;6.10;90.40;;;;;;5014800;28;20139;-77
2021/03/12 08:04:34;;;;;;;55.38;6.97;;;6.20;89.70;;;;;;5034680;28;20051;-76
2021/03/12 08:07:20;;;;;;;45.15;6.15;;;6.20;89.70;;;;;;5008537;28;20083;-76
2021/03/12 08:09:50;;;;;;;41.92;6.70;;;6.30;89.40;;;;;;5031703;28;20059;-77
2021/03/12 08:12:37;;;;;;;52.92;6.53;;;6.30;90.10;;;;;;5050103;28;20013;-74
2021/03/12 08:15:19;;;;;;;40.55;6.90;;;6.30;89.30;;;;;;4995706;28;20252;-78
2021/03/12 08:18:07;;;;;;;45.13;6.70;;;6.40;88.00;;;;;;4999617;28;20674;-79
2021/03/12 08:20:43;;;;;;;31.92;4.93;;;6.50;87.50;;;;;;5005730;28;20373;-77
2021/03/12 08:23:15;;;;;;;38.42;5.20;;;6.50;86.10;;;;;;5004847;28;20475;-77
2021/03/12 08:25:48;;;;;;;50.08;5.68;;;6.50;86.10;;;;;;5021841;28;20048;-76
2021/03/12 08:28:13;;;;;;;38.17;5.00;;;6.50;85.90;;;;;;5008331;28;20033;-75
2021/03/12 08:30:39;;;;;;;30.55;5.55;;;6.50;85.90;;;;;;5058493;28;20233;-76
2021/03/12 08:33:08;;;;;;;33.08;6.03;;;6.50;84.80;;;;;;5025483;28;20036;-77
2021/03/12 08:35:39;;;;;;;40.03;6.45;;;6.50;84.00;;;;;;5042544;28;20315;-78
2021/03/12 08:38:11;;;;;;;48.92;4.82;;;6.50;83.70;;;;;;5035188;28;20023;-77
2021/03/12 08:40:41;;;;;;;;;;;6.60;82.80;;;;;;5052557;28;20641;-74
2021/03/12 08:43:10;;;;;;;38.20;6.18;;;6.60;82.50;;;;;;5039395;28;19916;-76
2021/03/12 08:45:49;;;;;;;48.38;6.43;;;6.80;81.40;;;;;;5008806;28;20021;-77
2021/03/12 08:48:16;;;;;;;34.72;6.95;;;6.90;80.40;;;;;;5023474;28;20020;-78
2021/03/12 08:50:43;;;;;;;41.15;5.05;;;6.80;81.50;;;;;;5015058;28;20023;-77
2021/03/12 08:53:08;;;;;;;38.88;6.90;;;6.90;82.00;;;;;;5021877;28;20020;-74
2021/03/12 08:55:35;;;;;;;48.20;7.35;;;6.80;82.20;;;;;;4981886;28;20043;-72
2021/03/12 08:58:21;;;;;;;40.13;6.95;;;7.30;82.10;;;;;;4999168;28;20028;-73
2021/03/12 09:00:48;;;;;;;50.25;7.07;;;7.60;81.50;;;;;;5005164;28;20087;-73
2021/03/12 09:03:18;;;;;;;36.50;5.38;;;8.40;78.30;;;;;;4995602;28;20028;-73
2021/03/12 09:05:44;;;;;;;39.63;5.90;;;8.80;76.70;;;;;;4991800;28;20071;-72
2021/03/12 09:08:09;;;;;;;44.67;7.38;;;8.60;75.20;;;;;;4966736;28;21137;-75
2021/03/12 09:10:35;;;;;;;47.30;8.32;;;7.70;76.90;;;;;;4981800;28;20272;-75
2021/03/12 09:13:01;;;;;;;38.08;6.30;;;7.20;79.60;;;;;;4963607;28;20108;-76
2021/03/12 09:15:27;;;;;;;51.25;6.90;;;7.10;80.60;;;;;;4958524;28;20264;-75
2021/03/12 09:17:57;;;;;;;44.30;6.53;;;8.00;79.20;;;;;;4975612;28;20301;-75
2021/03/12 09:20:23;;;;;;;43.53;6.68;;;9.10;75.50;;;;;;4949555;28;20870;-76
2021/03/12 09:22:55;;;;;;;40.67;5.82;;;8.90;74.20;;;;;;4971665;28;20610;-75
2021/03/12 09:25:28;;;;;;;38.70;6.47;;;9.70;72.10;;;;;;4972410;28;20029;-73
2021/03/12 09:28:04;;;;;;;35.50;5.68;;;10.40;68.10;;;;;;4989168;28;20057;-74
2021/03/12 09:30:41;;;;;;;35.85;5.65;;;10.00;69.90;;;;;;4951750;28;20017;-74
2021/03/12 09:33:07;;;;;;;47.42;6.72;;;9.40;69.10;;;;;;4980267;28;20012;-73
2021/03/12 09:35:40;;;;;;;32.05;5.22;;;8.70;71.40;;;;;;4978322;28;20375;-74
2021/03/12 09:38:06;;;;;;;27.20;4.30;;;8.20;72.50;;;;;;4996387;28;20222;-73
2021/03/12 09:40:32;;;;;;;36.85;5.82;;;7.70;73.70;;;;;;5023127;28;20024;-74
2021/03/12 09:42:58;;;;;;;32.25;5.50;;;6.90;77.60;;;;;;5020410;28;22117;-73
2021/03/12 09:45:24;;;;;;;31.27;5.47;;;6.40;81.20;;;;;;4984560;28;20021;-73
2021/03/12 09:47:51;;;;;;;46.67;6.60;;;6.20;82.50;;;;;;5015416;28;20024;-73
2021/03/12 09:50:17;;;;;;;35.22;6.72;;;6.20;83.70;;;;;;5021367;28;20438;-76
2021/03/12 09:52:46;;;;;;;45.78;6.60;;;6.30;83.90;;;;;;5029725;28;20025;-75
2021/03/12 09:55:12;;;;;;;42.05;6.57;;;6.40;84.10;;;;;;4997265;28;20021;-74
2021/03/12 09:57:37;;;;;;;37.15;5.90;;;6.50;84.10;;;;;;5013423;28;20285;-75
2021/03/12 10:00:07;;;;;;;44.30;6.82;;;6.50;84.80;;;;;;5003021;28;20170;-74
2021/03/12 10:02:32;;;;;;;40.45;6.03;;;6.50;85.30;;;;;;5013674;28;20269;-75
2021/03/12 10:04:59;;;;;;;32.72;4.15;;;6.40;87.00;;;;;;5007267;28;20013;-73
2021/03/12 10:07:38;;;;;;;30.38;5.18;;;6.10;86.70;;;;;;5010228;28;20032;-74
2021/03/12 10:10:34;;;;;;;36.08;9.25;;;5.90;88.50;;;;;;5017441;28;20021;-74
2021/03/12 10:13:01;;;;;;;30.45;5.68;;;6.00;88.70;;;;;;5020244;28;20325;-77
2021/03/12 10:15:34;;;;;;;38.38;6.15;;;6.20;88.70;;;;;;5002981;28;20173;-78
2021/03/12 10:18:00;;;;;;;39.30;5.97;;;6.30;88.50;;;;;;4995137;28;20016;-75
2021/03/12 10:20:33;;;;;;;33.88;4.65;;;6.30;87.20;;;;;;4987849;28;20131;-74
2021/03/12 10:23:06;;;;;;;25.85;4.72;;;6.30;87.50;;;;;;5005211;28;20701;-75
2021/03/12 10:25:52;;;;;;;35.67;6.18;;;6.30;87.30;;;;;;5006963;28;20189;-75
2021/03/12 10:28:20;;;;;;;29.80;5.05;;;6.60;86.20;;;;;;5041057;28;20075;-74
2021/03/12 10:30:49;;;;;;;30.80;6.72;;;7.70;83.30;;;;;;5020811;28;20123;-75
2021/03/12 10:33:19;;;;;;;28.92;5.82;;;8.50;80.40;;;;;;5018426;28;20069;-76
2021/03/12 10:35:49;;;;;;;19.65;4.82;;;9.80;76.40;;;;;;5013540;28;20034;-76
2021/03/12 10:38:18;;;;;;;30.85;5.88;;;10.10;72.10;;;;;;5024723;28;20067;-77
2021/03/12 10:40:58;;;;;;;27.98;5.68;;;8.80;74.30;;;;;;5035242;28;20939;-77
2021/03/12 10:43:28;;;;;;;35.35;6.50;;;8.20;77.50;;;;;;5028910;28;21536;-75
2021/03/12 10:46:04;;;;;;;37.40;7.38;;;8.40;78.50;;;;;;5037124;28;20021;-75
2021/03/12 10:48:41;;;;;;;88.28;15.38;;;7.80;77.90;;;;;;5005175;28;20829;-75
2021/03/12 10:51:07;;;;;;;45.95;7.25;;;7.60;79.70;;;;;;5017765;28;20087;-76
2021/03/12 10:53:55;;;;;;;39.72;6.57;;;7.40;80.50;;;;;;5020739;28;20303;-75
2021/03/12 10:56:22;;;;;;;34.22;6.10;;;7.20;80.20;;;;;;5033261;28;20021;-75
2021/03/12 10:58:53;;;;;;;39.08;7.28;;;7.10;80.40;;;;;;4997161;28;20046;-74
2021/03/12 11:01:28;;;;;;;31.33;5.78;;;7.00;82.00;;;;;;4994819;28;20017;-74
2021/03/12 11:03:54;;;;;;;91.38;19.33;;;6.80;80.50;;;;;;5017563;28;20021;-74
2021/03/12 11:06:28;;;;;;;35.28;6.22;;;6.70;82.00;;;;;;5024052;28;20057;-74
2021/03/12 11:08:54;;;;;;;30.33;4.72;;;6.60;81.50;;;;;;5033710;28;20025;-77
2021/03/12 11:11:24;;;;;;;30.92;4.32;;;7.30;81.80;;;;;;5005302;28;20585;-75
2021/03/12 11:13:50;;;;;;;23.35;4.13;;;8.00;78.80;;;;;;5028810;28;20718;-76
2021/03/12 11:16:16;;;;;;;30.08;5.03;;;7.70;77.60;;;;;;5029728;28;20017;-77
2021/03/12 11:18:41;;;;;;;32.63;5.63;;;7.60;77.70;;;;;;5021914;28;20019;-73
2021/03/12 11:21:09;;;;;;;33.20;5.40;;;7.40;78.30;;;;;;5019382;28;20018;-77
2021/03/12 11:23:35;;;;;;;45.22;8.80;;;7.30;78.20;;;;;;5006489;28;20343;-78
2021/03/12 11:26:01;;;;;;;33.88;5.40;;;7.40;77.70;;;;;;5013255;28;20021;-74
2021/03/12 11:28:27;;;;;;;44.20;9.57;;;7.40;77.60;;;;;;5031391;28;20491;-79
2021/03/12 11:30:53;;;;;;;23.08;5.30;;;7.30;77.00;;;;;;5030335;28;20055;-78
2021/03/12 11:33:19;;;;;;;29.58;5.90;;;7.40;76.70;;;;;;5016442;28;20971;-77
2021/03/12 11:35:45;;;;;;;27.65;5.28;;;7.50;77.00;;;;;;5033875;28;20115;-74
2021/03/12 11:38:11;;;;;;;28.60;4.43;;;7.60;76.10;;;;;;5027819;28;20120;-73
2021/03/12 11:40:37;;;;;;;25.55;4.97;;;7.90;75.50;;;;;;5018751;28;20383;-73
2021/03/12 11:43:04;;;;;;;27.77;4.35;;;8.00;74.70;;;;;;5028655;28;20028;-74
2021/03/12 11:45:29;;;;;;;24.60;4.78;;;8.10;74.80;;;;;;5013303;28;20012;-73
2021/03/12 11:47:58;;;;;;;34.53;6.15;;;8.30;75.40;;;;;;5026534;28;20040;-74
2021/03/12 11:50:25;;;;;;;31.48;4.70;;;8.50;74.30;;;;;;5038889;28;20025;-77
2021/03/12 11:52:50;;;;;;;27.52;5.22;;;8.70;72.90;;;;;;5023927;28;20024;-74
2021/03/12 11:55:16;;;;;;;37.85;5.43;;;8.90;71.00;;;;;;5047249;28;20021;-75
2021/03/12 11:57:42;;;;;;;26.45;4.60;;;8.80;70.30;;;;;;4995756;28;20021;-74
2021/03/12 12:00:09;;;;;;;30.05;4.90;;;8.70;70.30;;;;;;5019186;28;20027;-76
2021/03/12 12:02:35;;;;;;;36.38;4.60;;;8.50;71.30;;;;;;5008462;28;20106;-77
2021/03/12 12:05:02;;;;;;;31.80;7.20;;;8.20;70.90;;;;;;5000311;28;20024;-76
2021/03/12 12:07:28;;;;;;;21.85;3.70;;;8.10;72.30;;;;;;5023153;28;20024;-76
2021/03/12 12:09:54;;;;;;;23.38;4.38;;;8.00;73.00;;;;;;5013693;28;20115;-77
2021/03/12 12:12:19;;;;;;;26.98;5.20;;;8.10;73.00;;;;;;5037484;28;20120;-73
2021/03/12 12:14:46;;;;;;;24.58;4.22;;;7.90;72.80;;;;;;5007723;28;20083;-75
2021/03/12 12:17:12;;;;;;;33.58;5.05;;;7.80;72.80;;;;;;5015563;28;20347;-77
2021/03/12 12:19:39;;;;;;;24.85;3.83;;;7.80;72.90;;;;;;5011931;28;20049;-73
2021/03/12 12:22:05;;;;;;;21.38;3.65;;;7.90;72.30;;;;;;4987848;28;20027;-74
2021/03/12 12:24:31;;;;;;;20.58;3.92;;;8.00;72.10;;;;;;5010777;28;20245;-76
2021/03/12 12:26:56;;;;;;;26.65;4.75;;;8.00;71.30;;;;;;5019084;28;20874;-75
2021/03/12 12:29:22;;;;;;;28.05;4.47;;;7.90;71.90;;;;;;5029294;28;20024;-74
2021/03/12 12:31:48;;;;;;;25.88;4.55;;;8.10;72.00;;;;;;5007664;28;20023;-74
2021/03/12 12:34:13;;;;;;;35.35;5.72;;;8.20;72.30;;;;;;5010729;28;20025;-75
2021/03/12 12:36:39;;;;;;;21.15;4.20;;;8.40;72.10;;;;;;5020695;28;20016;-76
2021/03/12 12:39:06;;;;;;;28.85;5.10;;;8.40;71.10;;;;;;5009694;28;20215;-75
2021/03/12 12:41:32;;;;;;;30.52;6.32;;;8.30;71.40;;;;;;5020189;28;20467;-75
2021/03/12 12:43:58;;;;;;;24.38;4.72;;;8.40;71.50;;;;;;4992145;28;20274;-74
2021/03/12 12:46:24;;;;;;;22.80;4.85;;;8.40;71.70;;;;;;4994023;28;20191;-76
2021/03/12 12:48:49;;;;;;;31.42;4.78;;;8.50;71.60;;;;;;4994304;28;20103;-76
2021/03/12 12:51:16;;;;;;;58.72;12.80;;;8.70;70.00;;;;;;4988883;28;20021;-75
2021/03/12 12:53:41;;;;;;;28.63;5.28;;;8.60;69.60;;;;;;5016270;28;20186;-82